Time;durP1;ratioP1;P1;durP2;ratioP2;P2;SDS_P1;SDS_P2;PMS_P1;PMS_P2;Temp;Humidity;BMP_temperature;BMP_pressure;BME280_temperature;BME280_humidity;BME280_pressure;Samples;Min_cycle;Max_cycle;Signal;HPM_P1;HPM_P2
2023/08/14 00:00:23;;;;;;;2.90;2.50;;;16.50;99.90;;;;;;5074307;28;20072;-70
2023/08/14 00:02:49;;;;;;;2.50;2.30;;;16.40;99.90;;;;;;5075765;28;20071;-72
2023/08/14 00:05:15;;;;;;;3.60;2.45;;;16.40;99.90;;;;;;5076609;28;20115;-70
2023/08/14 00:07:43;;;;;;;3.83;2.40;;;16.40;99.90;;;;;;5075054;28;20045;-70
2023/08/14 00:10:09;;;;;;;4.70;2.15;;;16.30;99.90;;;;;;5059099;28;20037;-71
2023/08/14 00:12:34;;;;;;;4.55;1.90;;;16.30;99.90;;;;;;5075705;28;20040;-71
2023/08/14 00:15:00;;;;;;;4.90;2.13;;;16.30;99.90;;;;;;5076085;28;20055;-70
2023/08/14 00:17:26;;;;;;;1.85;1.75;;;16.20;99.90;;;;;;5074215;28;20044;-71
2023/08/14 00:19:52;;;;;;;2.00;1.80;;;16.20;99.90;;;;;;5058864;28;20083;-71
2023/08/14 00:22:20;;;;;;;2.53;1.50;;;16.20;99.90;;;;;;5076404;28;20058;-70
2023/08/14 00:24:46;;;;;;;3.65;1.92;;;16.20;99.90;;;;;;5058394;28;20094;-69
2023/08/14 00:27:12;;;;;;;2.00;1.80;;;16.10;99.90;;;;;;5075241;28;20044;-70
2023/08/14 00:29:37;;;;;;;4.43;1.88;;;16.10;99.90;;;;;;5075513;28;20054;-71
2023/08/14 00:32:03;;;;;;;2.15;2.00;;;16.00;99.90;;;;;;5076455;28;20045;-70
2023/08/14 00:34:29;;;;;;;2.28;1.90;;;16.00;99.90;;;;;;5075555;28;20131;-71
2023/08/14 00:36:55;;;;;;;2.33;2.13;;;16.00;99.90;;;;;;5076023;28;20044;-71
2023/08/14 00:39:20;;;;;;;2.75;1.90;;;16.00;99.90;;;;;;5076086;28;20086;-71
2023/08/14 00:41:49;;;;;;;2.63;2.17;;;16.00;99.90;;;;;;5058469;28;20048;-71
2023/08/14 00:44:14;;;;;;;5.28;2.03;;;16.00;99.90;;;;;;5075333;28;20628;-71
2023/08/14 00:46:40;;;;;;;3.80;2.33;;;16.00;99.90;;;;;;5077305;28;20048;-71
2023/08/14 00:49:07;;;;;;;6.30;2.70;;;16.00;99.90;;;;;;5081723;28;20036;-71
2023/08/14 00:51:34;;;;;;;4.20;2.85;;;16.00;99.90;;;;;;5078189;28;20086;-71
2023/08/14 00:54:00;;;;;;;3.15;2.83;;;16.00;99.90;;;;;;5080276;28;20052;-71
2023/08/14 00:56:29;;;;;;;4.85;1.92;;;16.00;99.90;;;;;;5078855;28;20051;-71
2023/08/14 00:58:56;;;;;;;6.60;2.53;;;15.90;99.90;;;;;;5080343;28;20048;-71
2023/08/14 01:01:22;;;;;;;3.28;2.20;;;15.90;99.90;;;;;;5080889;28;20044;-70
2023/08/14 01:03:49;;;;;;;2.97;2.05;;;15.90;99.90;;;;;;5078663;28;20405;-71
2023/08/14 01:06:14;;;;;;;3.22;2.25;;;15.90;99.90;;;;;;5080110;28;20052;-70
2023/08/14 01:08:41;;;;;;;2.15;1.95;;;15.90;99.90;;;;;;5079104;28;20041;-71
2023/08/14 01:11:33;;;;;;;2.58;1.63;;;15.90;99.90;;;;;;5081205;28;20048;-70
2023/08/14 01:14:12;;;;;;;3.50;1.95;;;15.80;99.90;;;;;;5080043;28;20055;-71
2023/08/14 01:16:43;;;;;;;2.63;2.03;;;15.80;99.90;;;;;;5087285;28;20105;-71
2023/08/14 01:19:20;;;;;;;2.42;2.20;;;15.70;99.90;;;;;;5101292;28;20048;-71
2023/08/14 01:22:13;;;;;;;3.50;2.90;;;15.70;99.90;;;;;;5099292;28;20419;-70
2023/08/14 01:24:55;;;;;;;4.28;2.80;;;15.70;99.90;;;;;;5099620;28;20056;-70
2023/08/14 01:27:22;;;;;;;2.75;2.55;;;15.70;99.90;;;;;;5100696;28;20044;-71
2023/08/14 01:29:57;;;;;;;6.97;3.80;;;15.60;99.90;;;;;;5080931;28;20044;-70
2023/08/14 01:32:22;;;;;;;3.85;2.95;;;15.60;99.90;;;;;;5099788;28;20052;-70
2023/08/14 01:34:48;;;;;;;3.42;2.95;;;15.60;99.90;;;;;;5097905;28;20112;-72
2023/08/14 01:37:22;;;;;;;4.60;3.22;;;15.70;99.90;;;;;;5100366;28;20052;-71
2023/08/14 01:39:55;;;;;;;5.22;2.90;;;15.70;99.90;;;;;;5098624;28;20120;-71
2023/08/14 01:42:29;;;;;;;5.50;4.07;;;15.70;99.90;;;;;;5097962;28;20040;-70
2023/08/14 01:45:02;;;;;;;6.40;4.15;;;15.70;99.90;;;;;;5100959;28;20059;-71
2023/08/14 01:47:28;;;;;;;;;;;15.70;99.90;;;;;;5099556;28;20051;-71
2023/08/14 01:49:57;;;;;;;6.75;4.43;;;15.70;99.90;;;;;;5099193;28;19924;-72
2023/08/14 01:52:23;;;;;;;5.47;4.38;;;15.70;99.90;;;;;;5099581;28;20868;-70
2023/08/14 01:54:49;;;;;;;10.43;5.95;;;15.70;99.90;;;;;;5098255;28;20044;-70
2023/08/14 01:57:14;;;;;;;10.90;6.00;;;15.70;99.90;;;;;;5098223;28;20048;-71
2023/08/14 01:59:43;;;;;;;8.55;5.80;;;15.70;99.90;;;;;;5097527;28;20104;-69
2023/08/14 02:02:11;;;;;;;7.18;5.70;;;15.70;99.90;;;;;;5099614;28;20083;-71
2023/08/14 02:04:39;;;;;;;8.52;6.55;;;15.60;99.90;;;;;;5080651;28;20052;-71
2023/08/14 02:07:05;;;;;;;8.75;5.88;;;15.70;99.90;;;;;;5098590;28;20052;-70
2023/08/14 02:09:32;;;;;;;6.25;5.47;;;15.70;99.90;;;;;;5081427;28;20047;-71
2023/08/14 02:11:59;;;;;;;7.28;5.30;;;15.70;99.90;;;;;;5099127;28;20419;-71
2023/08/14 02:14:25;;;;;;;6.18;5.25;;;15.70;99.90;;;;;;5098894;28;20055;-71
2023/08/14 02:16:51;;;;;;;7.20;5.88;;;15.70;99.90;;;;;;5097155;28;20036;-72
2023/08/14 02:19:16;;;;;;;7.45;5.75;;;15.70;99.90;;;;;;5100411;28;20052;-70
2023/08/14 02:21:42;;;;;;;7.88;5.85;;;15.80;99.90;;;;;;5097040;28;20048;-70
2023/08/14 02:24:08;;;;;;;9.32;5.72;;;15.80;99.90;;;;;;5081676;28;20056;-71
2023/08/14 02:26:34;;;;;;;8.52;5.32;;;15.80;99.90;;;;;;5098651;28;20836;-71
2023/08/14 02:29:00;;;;;;;6.57;5.22;;;15.70;99.90;;;;;;5097684;28;20055;-71
2023/08/14 02:31:25;;;;;;;7.00;5.53;;;15.70;99.90;;;;;;5081569;28;20047;-70
2023/08/14 02:33:57;;;;;;;7.38;5.72;;;15.70;99.90;;;;;;5098666;28;20139;-70
2023/08/14 02:36:23;;;;;;;6.78;5.60;;;15.70;99.90;;;;;;5082048;28;20063;-70
2023/08/14 02:38:49;;;;;;;8.35;5.63;;;15.70;99.90;;;;;;5098129;28;20474;-71
2023/08/14 02:41:14;;;;;;;8.05;5.78;;;15.60;99.90;;;;;;5099675;28;20086;-70
2023/08/14 02:43:40;;;;;;;6.88;5.80;;;15.70;99.90;;;;;;5080338;28;20044;-71
2023/08/14 02:46:06;;;;;;;10.40;6.65;;;15.60;99.90;;;;;;5098642;28;20040;-70
2023/08/14 02:48:32;;;;;;;8.50;5.68;;;15.70;99.90;;;;;;5097387;28;20082;-70
2023/08/14 02:50:57;;;;;;;8.23;5.45;;;15.60;99.90;;;;;;5096236;28;20079;-71
2023/08/14 02:53:23;;;;;;;7.28;5.28;;;15.70;99.90;;;;;;5099257;28;20193;-70
2023/08/14 02:55:52;;;;;;;7.38;6.03;;;15.70;99.90;;;;;;5095955;28;20036;-70
2023/08/14 02:58:19;;;;;;;8.63;5.70;;;15.70;99.90;;;;;;5080722;28;20044;-70
2023/08/14 03:00:46;;;;;;;9.85;5.93;;;15.70;99.90;;;;;;5079528;28;20077;-70
2023/08/14 03:03:15;;;;;;;7.38;5.78;;;15.60;99.90;;;;;;5098167;28;20074;-71
2023/08/14 03:05:41;;;;;;;8.52;6.03;;;15.70;99.90;;;;;;5096957;28;20047;-70
2023/08/14 03:08:07;;;;;;;9.13;5.78;;;15.60;99.90;;;;;;5095891;28;20056;-71
2023/08/14 03:10:33;;;;;;;7.43;5.65;;;15.60;99.90;;;;;;5079780;28;20131;-71
2023/08/14 03:13:01;;;;;;;6.90;5.95;;;15.60;99.90;;;;;;5096917;28;20097;-71
2023/08/14 03:15:27;;;;;;;9.57;6.18;;;15.60;99.90;;;;;;5097422;28;20052;-71
2023/08/14 03:17:53;;;;;;;7.43;5.70;;;15.60;99.90;;;;;;5096156;28;20063;-70
2023/08/14 03:20:18;;;;;;;7.80;5.50;;;15.50;99.90;;;;;;5097957;28;20072;-71
2023/08/14 03:22:44;;;;;;;10.30;6.00;;;15.50;99.90;;;;;;5097780;28;20048;-71
2023/08/14 03:25:10;;;;;;;11.15;6.20;;;15.60;99.90;;;;;;5095400;28;20036;-71
2023/08/14 03:27:36;;;;;;;8.32;5.85;;;15.50;99.90;;;;;;5097184;28;20106;-71
2023/08/14 03:30:03;;;;;;;10.70;6.28;;;15.60;99.90;;;;;;5095133;28;20047;-69
2023/08/14 03:32:28;;;;;;;10.13;6.20;;;15.50;99.90;;;;;;5097170;28;20458;-71
2023/08/14 03:34:54;;;;;;;9.38;6.20;;;15.50;99.90;;;;;;5097134;28;20039;-71
2023/08/14 03:37:20;;;;;;;9.43;6.53;;;15.40;99.90;;;;;;5095985;28;20044;-70
2023/08/14 03:39:45;;;;;;;10.35;6.75;;;15.40;99.90;;;;;;5079192;28;20040;-70
2023/08/14 03:42:11;;;;;;;9.45;6.88;;;15.50;99.90;;;;;;5095743;28;20064;-71
2023/08/14 03:44:37;;;;;;;9.93;6.55;;;15.50;99.90;;;;;;5098183;28;20112;-70
2023/08/14 03:47:03;;;;;;;9.77;6.20;;;15.50;99.90;;;;;;5094859;28;20040;-70
2023/08/14 03:49:28;;;;;;;9.70;5.88;;;15.50;99.90;;;;;;5080012;28;20101;-70
2023/08/14 03:51:54;;;;;;;8.43;6.45;;;15.50;99.90;;;;;;5096088;28;20059;-70
2023/08/14 03:54:20;;;;;;;8.07;6.85;;;15.40;99.90;;;;;;5096132;28;20052;-71
2023/08/14 03:56:46;;;;;;;11.45;7.43;;;15.50;99.90;;;;;;5097350;28;20039;-70
2023/08/14 03:59:12;;;;;;;11.27;6.63;;;15.50;99.90;;;;;;5095576;28;20562;-70
2023/08/14 04:01:39;;;;;;;8.43;5.97;;;15.50;99.90;;;;;;5096645;28;20055;-70
2023/08/14 04:04:07;;;;;;;8.27;6.53;;;15.50;99.90;;;;;;5096270;28;20067;-70
2023/08/14 04:06:34;;;;;;;12.85;6.57;;;15.50;99.90;;;;;;5096758;28;20074;-71
2023/08/14 04:09:03;;;;;;;8.98;6.28;;;15.50;99.90;;;;;;5078572;28;20084;-70
2023/08/14 04:11:32;;;;;;;8.13;6.43;;;15.50;99.90;;;;;;5097716;28;20063;-71
2023/08/14 04:13:58;;;;;;;9.85;5.65;;;15.50;99.90;;;;;;5095962;28;20491;-70
2023/08/14 04:16:41;;;;;;;8.77;5.80;;;15.40;99.90;;;;;;5078585;28;20056;-70
2023/08/14 04:19:08;;;;;;;9.57;6.60;;;15.40;99.90;;;;;;5097017;28;20407;-70
2023/08/14 04:21:34;;;;;;;10.38;6.55;;;15.40;99.90;;;;;;5094384;28;20084;-71
2023/08/14 04:23:59;;;;;;;8.30;6.30;;;15.40;99.90;;;;;;5097559;28;20138;-71
2023/08/14 04:26:25;;;;;;;7.70;6.75;;;15.40;99.90;;;;;;5096635;28;20052;-70
2023/08/14 04:28:51;;;;;;;11.13;6.32;;;15.40;99.90;;;;;;5096974;28;20131;-71
2023/08/14 04:31:17;;;;;;;9.05;6.43;;;15.40;99.90;;;;;;5096093;28;20512;-70
2023/08/14 04:33:42;;;;;;;11.90;7.28;;;15.40;99.90;;;;;;5094888;28;20040;-70
2023/08/14 04:36:08;;;;;;;8.13;6.72;;;15.40;99.90;;;;;;5079524;28;20048;-70
2023/08/14 04:38:34;;;;;;;9.07;7.35;;;15.40;99.90;;;;;;5094177;28;20080;-71
2023/08/14 04:40:59;;;;;;;11.60;8.13;;;15.40;99.90;;;;;;5096131;28;20615;-71
2023/08/14 04:43:25;;;;;;;14.80;9.50;;;15.40;99.90;;;;;;5094790;28;20144;-70
2023/08/14 04:45:51;;;;;;;14.13;9.27;;;15.40;99.90;;;;;;5096901;28;20095;-71
2023/08/14 04:48:16;;;;;;;14.55;9.25;;;15.40;99.90;;;;;;5079877;28;20086;-70
2023/08/14 04:50:42;;;;;;;12.85;8.60;;;15.50;99.90;;;;;;5074233;28;20052;-70
2023/08/14 04:53:10;;;;;;;11.75;7.50;;;15.40;99.90;;;;;;5075813;28;20223;-70
2023/08/14 04:55:36;;;;;;;13.15;7.57;;;15.40;99.90;;;;;;5073839;28;20045;-70
2023/08/14 04:58:02;;;;;;;11.70;7.68;;;15.50;99.90;;;;;;5075879;28;20098;-70
2023/08/14 05:00:28;;;;;;;8.82;7.03;;;15.50;99.90;;;;;;5075744;28;20040;-71
2023/08/14 05:02:53;;;;;;;9.52;6.50;;;15.60;99.90;;;;;;5076655;28;20051;-70
2023/08/14 05:05:19;;;;;;;10.23;6.32;;;15.60;99.90;;;;;;5076279;28;20922;-71
2023/08/14 05:07:49;;;;;;;10.05;6.38;;;15.60;99.90;;;;;;5074539;28;20050;-70
2023/08/14 05:10:14;;;;;;;8.93;7.13;;;15.60;99.90;;;;;;5077173;28;20056;-70
2023/08/14 05:12:40;;;;;;;11.00;7.72;;;15.60;99.90;;;;;;5074026;28;20051;-70
2023/08/14 05:15:06;;;;;;;8.30;6.57;;;15.60;99.90;;;;;;5076162;28;20098;-70
2023/08/14 05:17:32;;;;;;;12.10;6.93;;;15.80;99.90;;;;;;5057481;28;20048;-71
2023/08/14 05:20:00;;;;;;;10.50;6.63;;;15.90;99.90;;;;;;5075294;28;20051;-70
2023/08/14 05:22:26;;;;;;;11.70;6.82;;;16.10;99.90;;;;;;5075296;28;20472;-70
2023/08/14 05:24:51;;;;;;;10.95;7.25;;;16.10;99.90;;;;;;5074437;28;20072;-71
2023/08/14 05:27:17;;;;;;;8.45;6.95;;;16.20;99.90;;;;;;5075521;28;20055;-70
2023/08/14 05:29:45;;;;;;;13.43;7.10;;;16.40;99.90;;;;;;5075322;28;20043;-70
2023/08/14 05:32:11;;;;;;;7.75;6.50;;;16.50;99.90;;;;;;5077545;28;20056;-71
2023/08/14 05:34:37;;;;;;;8.55;6.65;;;16.50;99.90;;;;;;5060928;28;20059;-71
2023/08/14 05:37:02;;;;;;;11.02;7.07;;;16.70;99.90;;;;;;5078974;28;20257;-71
2023/08/14 05:39:28;;;;;;;11.15;6.50;;;16.80;99.90;;;;;;5079676;28;20045;-70
2023/08/14 05:41:54;;;;;;;10.05;7.10;;;16.80;99.90;;;;;;5078270;28;20041;-71
2023/08/14 05:44:20;;;;;;;10.98;7.07;;;16.90;99.90;;;;;;5080240;28;20045;-70
2023/08/14 05:46:45;;;;;;;10.57;6.75;;;16.90;99.90;;;;;;5077303;28;20041;-70
2023/08/14 05:49:11;;;;;;;11.02;7.22;;;17.10;99.90;;;;;;5079306;28;20054;-70
2023/08/14 05:51:37;;;;;;;10.90;6.75;;;17.20;99.90;;;;;;5063890;28;20064;-70
2023/08/14 05:54:03;;;;;;;10.05;6.43;;;17.30;99.90;;;;;;5066731;28;20067;-70
2023/08/14 05:56:29;;;;;;;13.73;6.50;;;17.20;99.90;;;;;;5079519;28;20120;-70
2023/08/14 05:58:57;;;;;;;10.85;6.38;;;17.10;99.90;;;;;;5078137;28;20431;-72
2023/08/14 06:01:24;;;;;;;12.23;7.47;;;17.10;99.90;;;;;;5078459;28;20044;-70
2023/08/14 06:03:49;;;;;;;12.10;7.05;;;17.20;99.90;;;;;;5078724;28;20040;-71
2023/08/14 06:06:15;;;;;;;11.77;7.40;;;17.30;99.90;;;;;;5078961;28;20055;-71
2023/08/14 06:08:41;;;;;;;16.67;8.30;;;17.30;99.90;;;;;;5078514;28;20118;-72
2023/08/14 06:11:07;;;;;;;15.55;7.65;;;17.40;99.90;;;;;;5080185;28;20044;-71
2023/08/14 06:13:33;;;;;;;13.05;7.72;;;17.40;99.90;;;;;;5077638;28;20147;-71
2023/08/14 06:15:59;;;;;;;12.40;7.28;;;17.50;99.90;;;;;;5084231;28;20500;-71
2023/08/14 06:18:25;;;;;;;13.25;7.90;;;17.50;99.90;;;;;;5098564;28;20208;-72
2023/08/14 06:20:51;;;;;;;12.30;7.70;;;17.50;99.90;;;;;;5094017;28;20044;-71
2023/08/14 06:23:17;;;;;;;11.32;7.45;;;17.60;99.90;;;;;;5079200;28;20050;-71
2023/08/14 06:25:43;;;;;;;10.73;8.18;;;17.60;99.90;;;;;;5078014;28;20049;-72
2023/08/14 06:28:08;;;;;;;13.18;7.97;;;17.60;99.90;;;;;;5062009;28;20132;-71
2023/08/14 06:30:34;;;;;;;15.20;7.90;;;17.70;99.90;;;;;;5060002;28;20068;-72
2023/08/14 06:33:01;;;;;;;14.25;8.57;;;17.60;99.90;;;;;;5078543;28;20048;-71
2023/08/14 06:35:27;;;;;;;12.32;8.52;;;17.60;99.90;;;;;;5078754;28;20052;-70
2023/08/14 06:37:52;;;;;;;20.27;8.40;;;17.70;99.90;;;;;;5077910;28;20048;-70
2023/08/14 06:40:18;;;;;;;11.40;8.50;;;17.70;99.90;;;;;;5061028;28;20048;-72
2023/08/14 06:42:44;;;;;;;13.60;8.80;;;17.70;99.90;;;;;;5077237;28;20075;-71
2023/08/14 06:45:10;;;;;;;12.68;7.88;;;17.70;99.90;;;;;;5057990;28;20032;-71
2023/08/14 06:47:44;;;;;;;16.30;8.88;;;17.70;99.90;;;;;;5072835;28;20061;-71
2023/08/14 06:50:11;;;;;;;15.60;7.78;;;17.70;99.90;;;;;;5073973;28;20044;-72
2023/08/14 06:52:37;;;;;;;9.75;7.88;;;17.70;99.90;;;;;;5076223;28;20068;-71
2023/08/14 06:55:02;;;;;;;13.27;8.85;;;17.80;99.90;;;;;;5075904;28;20096;-70
2023/08/14 06:57:28;;;;;;;13.98;8.07;;;17.80;99.90;;;;;;5081014;28;20043;-71
2023/08/14 06:59:54;;;;;;;14.00;8.65;;;17.80;99.90;;;;;;5095154;28;20084;-70
2023/08/14 07:02:20;;;;;;;12.90;7.97;;;18.00;99.90;;;;;;5098976;28;20048;-70
2023/08/14 07:04:46;;;;;;;14.57;8.10;;;18.00;99.90;;;;;;5097596;28;20093;-70
2023/08/14 07:07:11;;;;;;;13.50;8.00;;;18.00;99.90;;;;;;5098330;28;20052;-69
2023/08/14 07:09:37;;;;;;;16.92;8.57;;;18.00;99.90;;;;;;5096727;28;20204;-70
2023/08/14 07:12:03;;;;;;;12.50;7.55;;;18.00;99.90;;;;;;5097505;28;20036;-70
2023/08/14 07:14:29;;;;;;;14.63;8.60;;;18.00;99.90;;;;;;5080462;28;20470;-71
2023/08/14 07:16:55;;;;;;;14.25;8.23;;;18.10;99.90;;;;;;5095590;28;20092;-70
2023/08/14 07:19:20;;;;;;;13.02;7.82;;;18.10;99.90;;;;;;5097625;28;20076;-70
2023/08/14 07:21:46;;;;;;;10.43;7.63;;;18.10;99.90;;;;;;5078923;28;20098;-70
2023/08/14 07:24:15;;;;;;;12.35;8.02;;;18.20;99.90;;;;;;5080108;28;20044;-70
2023/08/14 07:26:41;;;;;;;14.82;8.20;;;18.10;99.90;;;;;;5096263;28;20070;-70
2023/08/14 07:29:07;;;;;;;16.15;7.40;;;18.20;99.90;;;;;;5096108;28;20036;-70
2023/08/14 07:31:33;;;;;;;14.90;7.50;;;18.20;99.90;;;;;;5098700;28;20040;-70
2023/08/14 07:33:58;;;;;;;11.35;7.35;;;18.30;99.90;;;;;;5078671;28;20042;-70
2023/08/14 07:36:24;;;;;;;17.02;8.82;;;18.30;99.90;;;;;;5099251;28;20051;-70
2023/08/14 07:38:50;;;;;;;10.20;6.95;;;18.30;99.90;;;;;;5095844;28;20051;-70
2023/08/14 07:41:16;;;;;;;9.43;6.80;;;18.40;99.90;;;;;;5096790;28;20419;-70
2023/08/14 07:43:42;;;;;;;12.48;7.50;;;18.50;99.90;;;;;;5079227;28;20471;-70
2023/08/14 07:46:09;;;;;;;9.77;6.70;;;18.60;99.90;;;;;;5097475;28;20142;-70
2023/08/14 07:48:35;;;;;;;13.23;6.05;;;18.80;99.90;;;;;;5079322;28;20048;-69
2023/08/14 07:51:01;;;;;;;13.05;5.75;;;18.90;99.90;;;;;;5051707;23;20064;-72
2023/08/14 07:53:26;;;;;;;9.98;5.57;;;19.00;99.90;;;;;;5059371;28;20047;-69
2023/08/14 07:55:52;;;;;;;9.32;5.05;;;19.20;99.90;;;;;;5041032;28;20075;-70
2023/08/14 07:58:18;;;;;;;10.38;5.10;;;19.30;99.90;;;;;;5060336;28;20671;-70
2023/08/14 08:00:44;;;;;;;10.57;4.75;;;19.30;99.90;;;;;;5040643;28;20579;-72
2023/08/14 08:03:10;;;;;;;7.63;4.35;;;19.30;99.90;;;;;;5060655;28;20049;-71
2023/08/14 08:05:36;;;;;;;11.40;4.55;;;19.30;99.90;;;;;;5040596;28;20091;-71
2023/08/14 08:08:02;;;;;;;8.00;3.70;;;19.40;99.90;;;;;;5060347;28;20124;-71
2023/08/14 08:10:28;;;;;;;7.03;4.57;;;19.50;99.90;;;;;;5024372;28;20048;-71
2023/08/14 08:12:54;;;;;;;12.13;3.75;;;19.70;99.90;;;;;;5059526;28;20080;-72
2023/08/14 08:15:20;;;;;;;5.97;4.00;;;19.70;99.90;;;;;;5025609;28;20059;-71
2023/08/14 08:17:46;;;;;;;9.40;3.55;;;19.70;99.90;;;;;;5058417;28;20056;-71
2023/08/14 08:20:12;;;;;;;7.82;3.65;;;19.80;99.90;;;;;;5060061;28;20072;-70
2023/08/14 08:22:37;;;;;;;8.55;3.15;;;19.90;99.90;;;;;;5040138;28;20045;-70
2023/08/14 08:25:04;;;;;;;8.15;2.80;;;20.00;99.90;;;;;;5041704;28;20587;-71
2023/08/14 08:27:30;;;;;;;7.43;3.10;;;20.00;99.90;;;;;;5056269;28;20102;-72
2023/08/14 08:29:56;;;;;;;8.15;2.67;;;20.00;99.90;;;;;;5059157;28;20489;-72
2023/08/14 08:32:21;;;;;;;3.53;2.50;;;20.20;99.90;;;;;;5025298;28;20060;-71
2023/08/14 08:34:47;;;;;;;8.40;2.90;;;20.40;99.90;;;;;;5040646;28;20037;-70
2023/08/14 08:37:13;;;;;;;4.72;2.53;;;20.50;99.90;;;;;;5060153;28;20152;-71
2023/08/14 08:39:39;;;;;;;6.97;2.72;;;20.60;99.90;;;;;;5040056;28;20048;-71
2023/08/14 08:42:11;;;;;;;5.30;2.50;;;20.70;99.90;;;;;;5059975;28;20091;-72
2023/08/14 08:44:45;;;;;;;7.32;3.05;;;20.80;99.90;;;;;;5058583;28;20041;-71
2023/08/14 08:47:15;;;;;;;6.78;2.60;;;21.00;99.90;;;;;;5059486;28;20045;-70
2023/08/14 08:49:41;;;;;;;7.50;2.60;;;21.00;99.90;;;;;;5041911;28;20471;-71
2023/08/14 08:52:08;;;;;;;4.93;2.28;;;21.20;99.90;;;;;;5040167;28;20499;-71
2023/08/14 08:54:34;;;;;;;5.82;2.60;;;21.30;99.90;;;;;;5041874;28;20130;-71
2023/08/14 08:57:00;;;;;;;4.78;2.50;;;21.30;99.90;;;;;;5039929;28;20560;-71
2023/08/14 08:59:30;;;;;;;6.80;2.83;;;21.40;99.90;;;;;;5059841;28;20059;-71
2023/08/14 09:01:56;;;;;;;4.72;2.67;;;21.50;99.90;;;;;;5040669;28;20041;-70
2023/08/14 09:04:22;;;;;;;4.88;2.40;;;21.60;99.90;;;;;;5040994;28;20043;-71
2023/08/14 09:06:47;;;;;;;4.95;2.53;;;21.60;99.90;;;;;;5041701;28;20052;-71
2023/08/14 09:09:14;;;;;;;8.25;2.78;;;21.70;99.90;;;;;;5043643;28;20049;-72
2023/08/14 09:11:40;;;;;;;4.28;2.80;;;21.70;99.90;;;;;;5045827;28;20047;-72
2023/08/14 09:14:06;;;;;;;9.63;3.20;;;21.80;99.90;;;;;;5061609;28;20041;-72
2023/08/14 09:16:32;;;;;;;5.35;2.67;;;21.80;99.90;;;;;;5045777;28;20075;-70
2023/08/14 09:18:59;;;;;;;7.55;2.75;;;21.90;99.90;;;;;;5027520;28;20501;-71
2023/08/14 09:21:28;;;;;;;7.95;2.67;;;21.90;99.90;;;;;;5045101;28;20045;-71
2023/08/14 09:23:55;;;;;;;5.78;2.78;;;21.90;99.90;;;;;;5063637;28;20041;-71
2023/08/14 09:26:21;;;;;;;8.20;3.53;;;22.00;99.90;;;;;;5043426;28;20139;-72
2023/08/14 09:28:47;;;;;;;8.40;3.33;;;22.10;99.90;;;;;;5045663;28;20419;-70
2023/08/14 09:31:15;;;;;;;7.70;3.55;;;22.10;99.90;;;;;;5061504;28;20045;-70
2023/08/14 09:33:45;;;;;;;6.60;3.47;;;22.10;99.90;;;;;;5045296;28;20079;-71
2023/08/14 09:36:12;;;;;;;8.07;3.70;;;22.20;99.90;;;;;;5044373;28;20053;-74
2023/08/14 09:38:39;;;;;;;11.02;3.42;;;22.20;99.90;;;;;;5044440;28;20057;-73
2023/08/14 09:41:05;;;;;;;5.32;3.15;;;22.30;99.90;;;;;;5028786;28;20041;-73
2023/08/14 09:43:32;;;;;;;7.97;2.83;;;22.30;99.90;;;;;;5043089;28;20056;-72
2023/08/14 09:46:00;;;;;;;9.43;2.97;;;22.30;99.90;;;;;;5063121;28;20037;-74
2023/08/14 09:48:43;;;;;;;7.78;2.80;;;22.40;99.90;;;;;;5026394;28;20087;-73
2023/08/14 09:51:18;;;;;;;7.90;2.75;;;22.40;99.90;;;;;;5045141;28;20060;-73
2023/08/14 09:53:46;;;;;;;5.70;2.35;;;22.40;99.90;;;;;;5062013;28;20783;-71
2023/08/14 09:56:19;;;;;;;8.48;2.88;;;22.50;99.90;;;;;;5043070;28;20064;-73
2023/08/14 09:58:47;;;;;;;5.20;2.38;;;22.40;99.90;;;;;;5044575;28;20048;-83
2023/08/14 10:01:17;;;;;;;5.30;2.47;;;22.50;99.90;;;;;;5042609;28;20120;-81
2023/08/14 10:03:46;;;;;;;7.07;2.40;;;22.40;99.90;;;;;;5028001;28;20096;-81
2023/08/14 10:06:13;;;;;;;4.93;2.05;;;22.50;99.90;;;;;;5026670;28;20074;-80
2023/08/14 10:08:42;;;;;;;5.50;1.85;;;22.50;99.90;;;;;;5043611;28;20044;-80
2023/08/14 10:11:12;;;;;;;5.53;1.80;;;22.60;99.90;;;;;;5044427;28;20165;-74
2023/08/14 10:13:45;;;;;;;2.58;1.75;;;22.60;99.90;;;;;;5042182;28;20037;-73
2023/08/14 10:16:15;;;;;;;7.22;2.03;;;22.70;99.90;;;;;;5062363;28;20146;-74
2023/08/14 10:18:44;;;;;;;6.93;2.28;;;22.60;99.90;;;;;;5041677;28;20240;-73
2023/08/14 10:21:12;;;;;;;7.78;2.63;;;22.70;99.90;;;;;;5061587;28;20044;-69
2023/08/14 10:23:39;;;;;;;11.93;2.35;;;22.70;99.90;;;;;;5059426;28;20397;-76
2023/08/14 10:26:06;;;;;;;8.65;2.20;;;22.70;99.90;;;;;;5059915;28;20104;-73
2023/08/14 10:28:33;;;;;;;4.78;2.30;;;22.70;99.90;;;;;;5043918;28;20126;-73
2023/08/14 10:31:00;;;;;;;5.20;1.70;;;22.80;99.90;;;;;;5041518;28;20526;-75
2023/08/14 10:33:27;;;;;;;3.25;1.63;;;22.90;99.90;;;;;;5026956;28;20037;-79
2023/08/14 10:35:55;;;;;;;4.07;1.55;;;22.90;99.90;;;;;;5041862;28;20073;-75
2023/08/14 10:38:50;;;;;;;2.67;1.48;;;22.80;99.90;;;;;;5043352;28;20069;-75
2023/08/14 10:41:17;;;;;;;3.53;1.55;;;22.90;99.90;;;;;;5041514;28;20048;-73
2023/08/14 10:43:46;;;;;;;5.30;1.33;;;22.90;99.90;;;;;;5059766;28;20045;-73
2023/08/14 10:46:16;;;;;;;3.78;1.60;;;22.90;99.90;;;;;;5061799;28;20048;-72
2023/08/14 10:48:43;;;;;;;3.63;1.77;;;23.00;99.90;;;;;;5059304;28;20049;-72
2023/08/14 10:51:12;;;;;;;7.47;1.90;;;23.00;99.90;;;;;;5061129;28;20053;-72
2023/08/14 10:53:40;;;;;;;4.65;1.67;;;23.10;99.90;;;;;;5060712;28;20598;-73
2023/08/14 10:56:10;;;;;;;4.32;1.90;;;23.10;99.90;;;;;;5060222;28;20072;-72
2023/08/14 10:58:38;;;;;;;3.65;1.42;;;23.10;99.90;;;;;;5061649;28;20105;-73
2023/08/14 11:01:07;;;;;;;6.88;2.05;;;23.10;99.90;;;;;;5041674;28;20055;-73
2023/08/14 11:03:56;;;;;;;7.40;2.13;;;23.10;99.90;;;;;;5061673;28;20525;-73
2023/08/14 11:06:27;;;;;;;5.25;1.63;;;23.40;99.90;;;;;;5060060;28;20099;-72
2023/08/14 11:09:04;;;;;;;3.92;1.70;;;23.40;99.90;;;;;;5041539;28;20041;-74
2023/08/14 11:11:30;;;;;;;8.05;1.85;;;23.40;99.90;;;;;;5026729;28;20049;-72
2023/08/14 11:13:56;;;;;;;7.00;1.73;;;23.40;99.90;;;;;;5041438;28;20455;-76
2023/08/14 11:16:22;;;;;;;6.18;2.20;;;23.50;99.90;;;;;;5061296;28;20097;-72
2023/08/14 11:18:50;;;;;;;7.15;1.85;;;23.40;99.90;;;;;;5059400;28;20072;-72
2023/08/14 11:21:16;;;;;;;5.32;1.63;;;23.50;99.90;;;;;;5060276;28;20107;-73
2023/08/14 11:23:42;;;;;;;5.80;1.60;;;23.40;99.90;;;;;;5058804;28;20060;-73
2023/08/14 11:26:08;;;;;;;4.88;1.75;;;23.60;99.90;;;;;;5039899;28;20060;-73
2023/08/14 11:28:34;;;;;;;12.77;2.30;;;23.50;99.90;;;;;;5063693;28;20036;-72
2023/08/14 11:30:59;;;;;;;4.40;1.48;;;23.70;99.90;;;;;;5052458;28;20103;-72
2023/08/14 11:33:25;;;;;;;7.30;1.85;;;23.80;99.90;;;;;;5060726;28;20557;-72
2023/08/14 11:35:54;;;;;;;4.47;1.42;;;23.90;99.90;;;;;;5058539;28;20053;-71
2023/08/14 11:38:22;;;;;;;6.78;1.75;;;23.90;99.90;;;;;;5025916;28;20138;-73
2023/08/14 11:40:48;;;;;;;7.82;2.10;;;23.90;99.90;;;;;;5059989;28;20040;-74
2023/08/14 11:43:15;;;;;;;8.25;1.60;;;23.90;99.90;;;;;;5059312;28;20103;-73
2023/08/14 11:45:41;;;;;;;6.47;2.55;;;24.10;99.90;;;;;;5060589;28;20052;-73
2023/08/14 11:48:08;;;;;;;6.32;1.55;;;24.10;99.90;;;;;;5040633;28;20052;-70
2023/08/14 11:50:34;;;;;;;5.45;1.98;;;24.30;99.90;;;;;;5041950;28;20742;-69
2023/08/14 11:53:00;;;;;;;6.35;1.58;;;24.30;99.90;;;;;;5058364;28;20048;-69
2023/08/14 11:55:29;;;;;;;3.45;1.40;;;24.30;99.90;;;;;;5060312;28;20136;-70
2023/08/14 11:57:59;;;;;;;4.90;1.52;;;24.30;99.90;;;;;;5025288;28;20082;-69
2023/08/14 12:00:25;;;;;;;4.68;1.70;;;24.40;99.90;;;;;;5041057;28;20056;-69
2023/08/14 12:02:53;;;;;;;4.45;1.60;;;24.40;99.90;;;;;;5042630;28;20045;-69
2023/08/14 12:05:20;;;;;;;6.32;2.22;;;24.40;99.90;;;;;;5057984;28;20048;-69
2023/08/14 12:07:45;;;;;;;6.45;1.70;;;24.40;99.90;;;;;;5060296;28;20591;-70
2023/08/14 12:10:15;;;;;;;4.18;1.75;;;24.40;99.90;;;;;;5058503;28;20037;-71
2023/08/14 12:12:40;;;;;;;5.50;1.50;;;24.20;99.90;;;;;;5042139;28;20057;-71
2023/08/14 12:15:07;;;;;;;8.82;1.85;;;24.40;99.90;;;;;;5042136;28;20101;-71
2023/08/14 12:17:33;;;;;;;6.38;1.63;;;24.20;99.90;;;;;;5058896;28;20044;-72
2023/08/14 12:20:03;;;;;;;9.07;1.77;;;24.40;99.90;;;;;;5041944;28;20068;-73
2023/08/14 12:22:31;;;;;;;5.53;1.60;;;24.40;99.90;;;;;;5057871;28;20052;-71
2023/08/14 12:24:57;;;;;;;6.25;1.65;;;24.30;99.90;;;;;;5059659;28;20047;-70
2023/08/14 12:27:27;;;;;;;3.53;1.60;;;24.30;99.90;;;;;;5040473;28;20033;-71
2023/08/14 12:29:54;;;;;;;4.43;1.40;;;24.20;99.90;;;;;;5059384;28;20079;-70
2023/08/14 12:32:21;;;;;;;4.68;1.55;;;24.20;99.90;;;;;;5059430;28;20696;-70
2023/08/14 12:34:48;;;;;;;3.60;1.50;;;24.30;99.90;;;;;;5057509;28;20130;-71
2023/08/14 12:37:15;;;;;;;6.28;1.73;;;24.40;99.90;;;;;;5041811;28;20486;-71
2023/08/14 12:39:47;;;;;;;5.82;1.88;;;24.30;99.90;;;;;;5023175;28;20437;-72
2023/08/14 12:42:14;;;;;;;5.07;1.50;;;24.20;99.90;;;;;;5045617;28;20540;-72